Greater Rochester International Airport
KROC : now visible

Airfield :











YOU CAN JOIN US ON...

 
LOGIN :

Register | Disclaimer

   EN    FR    IT 

 









Legend :    VFR   Marginal VFR   IFR   Intensive IFR   Very Intensive IFR
Visi :
Ceiling :
>= 8 km
>= 3000ft
5 to 8 km
1000 to 3000 ft
1500m to 5 km
500 to 1000 ft
800 to 1500m
200 to 500 ft
< 800m
< 200 ft
Symbols :   Thunderstorms  Fog  Heavy snow  Heavy precipitations  Wind > 20 kt






- Airport Elevation : 559 ft
- IATA code : ROC


KROC - Greater Rochester International

CURRENT METAR :
  • 080454Z 22009KT 10SM CLR 25/18 A2995 RMK AO2 SLP139 T02500183 403390200

EXPIRED METARs :
  • 080354Z 22014KT 10SM FEW050 26/18 A2995 RMK AO2 SLP140 T02610178
  • 080254Z 22011KT 10SM CLR 27/17 A2994 RMK AO2 SLP138 T02670172 53012

TAF KROC
Valid from the 08 at 03:00 until the 09 at 00:00 UTC


080249Z 0803/0824 24005KT P6SM FEW150
FM081500 28006KT P6SM SCT060
FM082100 32007KT P6SM FEW035
KZOB FIR / North America



MET'MAP, your aeronautical weather chart ! - Copyright ORBIFLY December 2007 - Disclaimer

ORBIFLY MET'MAP TEAM :

Programming & Development : Alexandra Zaïnal
Concept & original design : Baudouin d'Aumeries
Assistance for programming : Marc-Olivier Méhu
Technical & hardware support : Manuel Goepfert

Contact : metmap@orbifly.com




SOURCES & CREDITS :

   NOAA       Earth
Advisory